Tiempo atmosférico en la estación meteorológica de Tresviso, Cantabria (912 m.)



Fecha
DESCASC
Temp. máxima en grados centígrados (hora)
DESCASC
Temp. mínima en grados centígrados (hora)
DESCASC
Temp. media en grados centígrados
DESCASC
Racha de viento máxima en m/sg (hora)
DESCASC
Velocidad máxima media en intervalos de 10 minutos(hora)
DESCASC
Precipitaciones diarias en mm
DESCASC
Precipitaciones de 00:00 a 06:00 en mm
DESCASC
Precipitaciones de 06:00 a 12:00 en mm
DESCASC
Precipitaciones de 12:00 a 18:00 en mm
DESCASC
Precipitaciones de 18:00 a 24:00 en mm
DESCASC
08-12-2019 12 (09:30) 7 (21:40) 9.5 15.28 (13:50) 9.44 (13:40) 5.6 0 3.8 1.8 0
07-12-2019 13.8 (14:50) 6.3 (00:00) 10.1 4.17 (10:50) 2.22 (08:30) 0 0 0 0 0
06-12-2019 10.5 (14:20) 4.8 (00:30) 7.7 3.33 (09:00) 2.5 (05:00) 0 0 0 0 0
05-12-2019 5.8 (13:50) 4 (00:00) 4.9 7.5 (02:00) 5.28 (01:20) 10.2 5.6 4.6 0 0
04-12-2019 8.4 (12:00) 2.6 (00:00) 5.5 8.89 (22:20) 6.67 (22:20) 0 0 0 0 0
03-12-2019 5 (16:20) -0.2 (00:00) 2.4 6.94 (23:40) 4.17 (23:59) 1.8 1.4 0.4 0 0
02-12-2019 3.8 (08:40) 1.3 (00:00) 2.5 16.39 (08:40) 7.22 (08:40) 58.4 4.8 39.4 14.2 0
01-12-2019 7.2 (14:10) 2.3 (00:00) 4.7 12.5 (20:10) 6.94 (19:10) 31.4 0 0 8.4 23
30-11-2019 12.4 (06:50) 4.9 (00:00) 8.6 12.5 (11:30) 6.11 (10:40) 6.2 0 4.8 1.4 0
29-11-2019 12.1 (15:00) 6.6 (00:00) 9.4 8.61 (01:20) 4.72 (01:00) 0.2 0 0.2 0 0
28-11-2019 10.5 (19:40) 6.4 (00:00) 8.5 12.5 (19:40) 7.78 (19:40) 8.6 0 0 4.2 4.4
27-11-2019 10.6 (13:00) 6.4 (00:00) 8.5 11.11 (01:10) 5.83 (15:10) 0.2 0 0 0 0.2
26-11-2019 15.5 (15:50) 8.7 (00:00) 12.1 22.78 (17:00) 12.78 (18:10) 0.8 0 0 0.2 0.6
25-11-2019 12.1 (12:30) 7.7 (00:00) 9.9 6.67 (04:10) 3.61 (03:50) 0 0 0 0 0
24-11-2019 9.1 (15:50) 4.8 (00:00) 7 15.83 (00:40) 9.17 (01:40) 1 0.4 0 0.2 0.4
23-11-2019 7.8 (00:10) 3.1 (00:00) 5.5 29.72 (06:50) 17.5 (06:50) 48.8 27.6 6.4 10.6 4.2
22-11-2019 13.8 (14:10) 5.7 (00:00) 9.8 35.83 (10:50) 22.5 (10:50) 1.8 0 1.6 0.2 0
21-11-2019 10.2 (14:20) 3.7 (00:00) 6.9 5.56 (23:40) 3.06 (19:20) 0.8 0 0.8 0 0
20-11-2019 10.2 (13:20) 4.4 (00:00) 7.3 5.56 (22:50) 3.61 (22:50) 0 0 0 0 0
19-11-2019 8 (13:50) 1.7 (00:00) 4.9 3.33 (01:30) 2.5 (01:30) 0 0 0 0 0
18-11-2019 4.2 (13:00) 1.7 (00:00) 2.9 11.67 (11:50) 6.39 (11:50) 18.6 9.8 8.2 0.6 0
17-11-2019 7 (13:00) 1.9 (00:00) 4.4 16.67 (14:50) 10.83 (15:00) 27 0.2 4.8 3.6 18.4
16-11-2019 4.4 (12:30) 1.2 (00:00) 2.8 16.94 (10:20) 11.11 (16:00) 25 7.4 11 6.6 0
15-11-2019 2.1 (06:50) 0.2 (00:00) 1.1 18.61 (10:10) 11.94 (10:10) 33.4 4.8 13.4 11.2 4
14-11-2019 4.3 (00:00) 0.5 (00:00) 2.4 16.67 (08:10) 10.83 (06:20) 19.6 14 1.2 2.6 1.8
13-11-2019 8.3 (15:00) 4.3 (00:00) 6.3 14.72 (06:30) 5.83 (06:30) 42.2 28.4 9 0.4 4.4
12-11-2019 8.4 (13:10) 3.7 (00:00) 6 12.5 (12:00) 8.89 (04:20) 20.2 0.8 1.2 4.4 13.8
11-11-2019 9.9 (08:10) 4 (19:50) 6.9 21.39 (09:10) 12.22 (09:00) 14.8 0 7.2 5.6 2

Gráficas

Temp. máximas Temp. mínimas Temp. medias Precipitaciones Rachas de viento máximas Velocidades máximas media en intervalos de 10 minutos

Datos horarios

Fecha y hora oficial Temperatura (ºC) Velocidad del viento (km/h) Dirección del viento Racha (km/h) Dirección de racha Precipitación (mm) Presión (hPa) Tendencia (hPa) Humedad (%)
2019-12-10 23:00:00 11.1 3 Sudoeste 21 Oeste 0 -- -- 54
2019-12-10 22:00:00 11.7 15 Oeste 18 Oeste 0 -- -- 51
2019-12-10 21:00:00 10.3 8 Norte 10 Norte 0 -- -- 51
2019-12-10 20:00:00 10.8 6 Norte 10 Norte 0 -- -- 50
2019-12-10 19:00:00 11.4 3 Norte 11 Norte 0 -- -- 46
2019-12-10 18:00:00 11.9 4 Norte 8 Noroeste 0 -- -- 47
2019-12-10 17:00:00 12.5 4 Noroeste 8 Noroeste 0 -- -- 38
2019-12-10 16:00:00 13.1 0 Calma 6 Sudoeste 0 -- -- 35
2019-12-10 15:00:00 13.1 2 Nordeste 6 Nordeste 0 -- -- 32
2019-12-10 14:00:00 13.5 3 Nordeste 6 Sudeste 0 -- -- 29
2019-12-10 13:00:00 12.3 3 Nordeste 8 Oeste 0 -- -- 33
2019-12-10 12:00:00 12 4 Nordeste 18 Sudoeste 0 -- -- 32
2019-12-10 11:00:00 11.2 6 Noroeste 14 Oeste 0 -- -- 32
2019-12-10 10:00:00 10 3 Nordeste 11 Sudoeste 0 -- -- 35
2019-12-10 09:00:00 8.3 3 Nordeste 9 Sudoeste 0 -- -- 35
2019-12-10 08:00:00 8.2 4 Oeste 9 Norte 0 -- -- 35
2019-12-10 07:00:00 7.1 6 Norte 10 Sudoeste 0 -- -- 41
2019-12-10 06:00:00 6.8 8 Sudoeste 13 Sudoeste 0 -- -- 43
2019-12-10 05:00:00 5.6 4 Oeste 10 Norte 0 -- -- 55
2019-12-10 04:00:00 4.2 5 Norte 7 Norte 0 -- -- 74
2019-12-10 03:00:00 4.3 3 Norte 10 Norte 0 -- -- 77
2019-12-10 02:00:00 3.9 4 Norte 8 Noroeste 0 -- -- 83
2019-12-10 01:00:00 4 4 Norte 5 Nordeste 0 -- -- 81
2019-12-10 00:00:00 4.2 2 Oeste 6 Norte 0 -- -- 82
2019-12-09 23:00:00 4.5 3 Oeste 8 Noroeste 0 -- -- 80
2019-12-09 22:00:00 4.7 2 Noroeste 21 Oeste 0 -- -- 83
2019-12-09 21:00:00 5.5 12 Oeste 33 Sudoeste 0 -- -- 78
2019-12-09 20:00:00 5.6 14 Oeste 31 Oeste 0 -- -- 81
2019-12-09 19:00:00 6.1 17 Oeste 27 Oeste 0 -- -- 81
2019-12-09 18:00:00 6.8 15 Oeste 40 Oeste 0 -- -- 71
2019-12-09 17:00:00 7.2 26 Oeste 45 Oeste 0 -- -- 71
2019-12-09 16:00:00 8 28 Oeste 57 Sudoeste 0 -- -- 66
2019-12-09 15:00:00 8 34 Oeste 59 Oeste 0 -- -- 66
2019-12-09 14:00:00 8.6 31 Oeste 69 Sudoeste 0 -- -- 64
2019-12-09 13:00:00 8.5 37 Oeste 63 Sudoeste 0 -- -- 64
2019-12-09 12:00:00 8.8 34 Oeste 62 Oeste 0 -- -- 61
2019-12-09 11:00:00 8.5 34 Oeste 63 Sudoeste 0 -- -- 64
2019-12-09 10:00:00 7.7 45 Sudoeste 71 Oeste 0 -- -- 65
2019-12-09 09:00:00 7.2 37 Oeste 68 Sudoeste 0 -- -- 66
2019-12-09 08:00:00 6.8 40 Sudoeste 75 Sudoeste 0 -- -- 65
2019-12-09 07:00:00 6 39 Sudoeste 60 Oeste 0 -- -- 63
2019-12-09 06:00:00 5.4 31 Oeste 53 Oeste 0 -- -- 57
2019-12-09 05:00:00 7.9 30 Oeste 43 Oeste 0 -- -- 34
2019-12-09 04:00:00 9.8 22 Oeste 50 Sudoeste 0 -- -- 24
2019-12-09 03:00:00 9.8 24 Oeste 46 Sudoeste 0 -- -- 22
2019-12-09 02:00:00 9.7 19 Oeste 39 Oeste 0 -- -- 22
2019-12-09 01:00:00 9.2 20 Oeste 33 Noroeste 0 -- -- 25
2019-12-09 00:00:00 9.4 18 Oeste 33 Oeste 0 -- -- 22
2019-12-08 23:00:00 9.4 21 Oeste 33 Oeste 0 -- -- 25
2019-12-08 22:00:00 8.4 19 Oeste 30 Oeste 0 -- -- 44
2019-12-08 21:00:00 9.4 21 Noroeste 33 Oeste 0 -- -- 33
2019-12-08 20:00:00 8.6 26 Oeste 40 Oeste 0 -- -- 57
2019-12-08 19:00:00 9.1 27 Oeste 39 Oeste 0 -- -- 61
2019-12-08 18:00:00 8.7 26 Oeste 49 Oeste 0 -- -- 78
2019-12-08 17:00:00 8.8 25 Oeste 39 Oeste 0 -- -- 88
2019-12-08 16:00:00 10.1 18 Oeste 41 Sudoeste 0.2 -- -- 90
2019-12-08 15:00:00 10.6 26 Sudoeste 45 Sudoeste 0 -- -- 91
2019-12-08 14:00:00 10.9 31 Oeste 55 Sudoeste 0.8 -- -- 89
2019-12-08 13:00:00 11.2 24 Sudoeste 36 Sudoeste 0.8 -- -- 89
2019-12-08 12:00:00 11 11 Oeste 24 Sudoeste 2.8 -- -- 88
2019-12-08 11:00:00 11.1 22 Oeste 32 Oeste 1 -- -- 81
2019-12-08 10:00:00 12 10 Oeste 19 Oeste 0 -- -- 73
2019-12-08 09:00:00 11.6 6 Sudoeste 19 Oeste 0 -- -- 73
2019-12-08 08:00:00 9.8 6 Nordeste 9 Sudeste 0 -- -- 71
2019-12-08 07:00:00 10.3 3 Este 7 Norte 0 -- -- 71
2019-12-08 06:00:00 9.5 4 Nordeste 10 Sudeste 0 -- -- 69
2019-12-08 05:00:00 9.3 3 Nordeste 8 Norte 0 -- -- 70
2019-12-08 04:00:00 9.1 3 Nordeste 9 Oeste 0 -- -- 68
2019-12-08 03:00:00 9.3 6 Sudoeste 15 Oeste 0 -- -- 68
2019-12-08 02:00:00 9.4 4 Noroeste 9 Noroeste 0 -- -- 68
2019-12-08 01:00:00 9.1 6 Noroeste 12 Noroeste 0 -- -- 69
2019-12-08 00:00:00 8.7 6 Oeste 8 Noroeste 0 -- -- 71
2019-12-07 23:00:00 8.5 3 Norte 8 Noroeste 0 -- -- 75
2019-12-07 22:00:00 8.1 0 Calma 6 Nordeste 0 -- -- 79
2019-12-07 21:00:00 9 2 Oeste 6 Sudoeste 0 -- -- 75
2019-12-07 20:00:00 9 0 Calma 4 Norte 0 -- -- 75
2019-12-07 19:00:00 9 0 Calma 4 Norte 0 -- -- 73
2019-12-07 18:00:00 9.4 0 Calma 5 Noroeste 0 -- -- 71
2019-12-07 17:00:00 10.7 4 Sudoeste 6 Sur 0 -- -- 66
2019-12-07 16:00:00 13.1 4 Sudeste 9 Sudeste 0 -- -- 59
2019-12-07 15:00:00 13.5 4 Sur 10 Sudeste 0 -- -- 59
2019-12-07 14:00:00 12.9 4 Sudeste 9 Sur 0 -- -- 58
2019-12-07 13:00:00 11.8 4 Este 10 Sudeste 0 -- -- 56
2019-12-07 12:00:00 10.7 4 Sur 10 Oeste 0 -- -- 62
2019-12-07 11:00:00 9.8 6 Oeste 15 Sudoeste 0 -- -- 64
2019-12-07 10:00:00 7.5 3 Oeste 6 Norte 0 -- -- 63
2019-12-07 09:00:00 7.5 0 Calma 10 Sudoeste 0 -- -- 61
2019-12-07 08:00:00 7.6 5 Norte 7 Noroeste 0 -- -- 61
2019-12-07 07:00:00 8.1 4 Norte 8 Norte 0 -- -- 58
2019-12-07 06:00:00 8.1 7 Sudoeste 9 Sudoeste 0 -- -- 57
2019-12-07 05:00:00 7.5 5 Oeste 9 Oeste 0 -- -- 60
2019-12-07 04:00:00 7.9 3 Noroeste 8 Norte 0 -- -- 57
2019-12-07 03:00:00 7.7 6 Norte 8 Norte 0 -- -- 59
2019-12-07 02:00:00 7.6 3 Noroeste 8 Norte 0 -- -- 64
2019-12-07 01:00:00 7.2 3 Nordeste 8 Sudoeste 0 -- -- 66
2019-12-07 00:00:00 6.3 5 Nordeste 9 Norte 0 -- -- 77
2019-12-06 23:00:00 6.6 0 Calma 9 Nordeste 0 -- -- 74
2019-12-06 22:00:00 7.4 0 Calma 10 Sudoeste 0 -- -- 64
2019-12-06 21:00:00 6.6 4 Sudoeste 8 Sudoeste 0 -- -- 74
2019-12-06 20:00:00 7.5 2 Noroeste 8 Sudoeste 0 -- -- 69
2019-12-06 19:00:00 7.9 0 Calma 5 Norte 0 -- -- 67
2019-12-06 18:00:00 8.1 4 Norte 5 Norte 0 -- -- 69
2019-12-06 17:00:00 8.4 0 Calma 9 Sudoeste 0 -- -- 69
2019-12-06 16:00:00 9 2 Nordeste 6 Sudoeste 0 -- -- 65
2019-12-06 15:00:00 10.2 3 Sur 6 Sudoeste 0 -- -- 64
2019-12-06 14:00:00 10.1 4 Nordeste 9 Sudeste 0 -- -- 56
2019-12-06 13:00:00 9.6 3 Nordeste 6 Nordeste 0 -- -- 60
2019-12-06 12:00:00 10 0 Calma 4 Norte 0 -- -- 55
2019-12-06 11:00:00 9 4 Norte 6 Norte 0 -- -- 54
2019-12-06 10:00:00 7.9 4 Norte 9 Oeste 0 -- -- 59
2019-12-06 09:00:00 7.2 7 Norte 12 Norte 0 -- -- 59
2019-12-06 08:00:00 6.8 6 Norte 9 Norte 0 -- -- 61
2019-12-06 07:00:00 6.4 5 Noroeste 7 Noroeste 0 -- -- 64
2019-12-06 06:00:00 5.7 2 Sudeste 9 Sudoeste 0 -- -- 72
2019-12-06 05:00:00 5.7 9 Sudoeste 12 Norte 0 -- -- 73
2019-12-06 04:00:00 5.1 2 Sudeste 5 Sur 0 -- -- 79
2019-12-06 03:00:00 5.5 3 Norte 7 Norte 0 -- -- 73
2019-12-06 02:00:00 5.8 5 Norte 8 Norte 0 -- -- 70
2019-12-06 01:00:00 5.3 2 Nordeste 6 Noroeste 0 -- -- 83
2019-12-06 00:00:00 4.9 3 Este 13 Norte 0 -- -- 88
2019-12-05 23:00:00 5.2 5 Norte 17 Nordeste 0 -- -- 88
2019-12-05 22:00:00 4.5 9 Nordeste 18 Nordeste 0 -- -- 94
2019-12-05 21:00:00 4.8 5 Norte 9 Nordeste 0 -- -- 96
2019-12-05 20:00:00 4.6 4 Nordeste 18 Norte 0 -- -- 95
2019-12-05 19:00:00 5.2 7 Norte 13 Nordeste 0 -- -- 96
2019-12-05 18:00:00 5.3 9 Nordeste 13 Nordeste 0 -- -- 96
2019-12-05 17:00:00 5.5 9 Nordeste 16 Nordeste 0 -- -- 95
2019-12-05 16:00:00 5.7 11 Nordeste 15 Nordeste 0 -- -- 95
2019-12-05 15:00:00 5.7 4 Nordeste 11 Norte 0 -- -- 96
2019-12-05 14:00:00 5.8 6 Nordeste 12 Nordeste 0 -- -- 96
2019-12-05 13:00:00 5 9 Nordeste 14 Este 0 -- -- 97
2019-12-05 12:00:00 4.7 8 Nordeste 14 Nordeste 0 -- -- 97
2019-12-05 11:00:00 4.9 7 Nordeste 13 Este 0 -- -- 95
2019-12-05 10:00:00 4.7 8 Norte 13 Nordeste 0 -- -- 97
2019-12-05 09:00:00 4.1 5 Nordeste 12 Noroeste 0.8 -- -- 98
2019-12-05 08:00:00 4.4 9 Nordeste 23 Este 1.6 -- -- 97
2019-12-05 07:00:00 5.3 6 Este 22 Nordeste 2.2 -- -- 97
2019-12-05 06:00:00 5.2 4 Sur 10 Sudeste 1.4 -- -- 97
2019-12-05 05:00:00 5.2 5 Este 13 Este 1.6 -- -- 96
2019-12-05 04:00:00 5.1 4 Oeste 13 Sudoeste 1.2 -- -- 95
2019-12-05 03:00:00 5.1 3 Oeste 24 Oeste 1.2 -- -- 93
2019-12-05 02:00:00 5.6 16 Oeste 27 Oeste 0.2 -- -- 90
2019-12-05 01:00:00 5.2 14 Oeste 24 Sudoeste 0 -- -- 91
2019-12-05 00:00:00 4.6 15 Sudoeste 23 Oeste 0 -- -- 87
2019-12-04 23:00:00 4.8 21 Oeste 32 Oeste 0 -- -- 81
2019-12-04 22:00:00 4.5 11 Oeste 15 Noroeste 0 -- -- 79
2019-12-04 21:00:00 4 14 Oeste 27 Noroeste 0 -- -- 80
2019-12-04 20:00:00 2.8 2 Nordeste 8 Este 0 -- -- 76
2019-12-04 19:00:00 3.3 3 Sudoeste 11 Sudoeste 0 -- -- 72
2019-12-04 18:00:00 4.3 8 Noroeste 20 Oeste 0 -- -- 68
2019-12-04 17:00:00 6.1 3 Sur 12 Sudoeste 0 -- -- 63
2019-12-04 16:00:00 7.4 2 Sudeste 13 Sur 0 -- -- 59
2019-12-04 15:00:00 7.8 5 Sur 14 Sur 0 -- -- 57
2019-12-04 14:00:00 7.8 5 Sudeste 12 Sudeste 0 -- -- 58
2019-12-04 13:00:00 7.3 10 Sur 14 Sur 0 -- -- 57
2019-12-04 12:00:00 8.4 6 Sur 10 Sur 0 -- -- 53
2019-12-04 11:00:00 6.9 4 Sur 9 Sur 0 -- -- 55
2019-12-04 10:00:00 5.2 6 Sudoeste 9 Sudoeste 0 -- -- 59
2019-12-04 09:00:00 4.8 4 Noroeste 10 Noroeste 0 -- -- 54
2019-12-04 08:00:00 4.5 8 Norte 11 Noroeste 0 -- -- 59
2019-12-04 07:00:00 4.2 5 Norte 13 Nordeste 0 -- -- 64
2019-12-04 06:00:00 3.9 8 Nordeste 14 Norte 0 -- -- 66
2019-12-04 05:00:00 3.9 6 Nordeste 16 Nordeste 0 -- -- 63
2019-12-04 04:00:00 3.8 11 Nordeste 24 Este 0 -- -- 64
2019-12-04 03:00:00 2.9 12 Nordeste 23 Nordeste 0 -- -- 71
2019-12-04 02:00:00 2.8 14 Nordeste 29 Norte 0 -- -- 74
2019-12-04 01:00:00 2.7 13 Nordeste 28 Este 0 -- -- 76
2019-12-04 00:00:00 2.7 15 Nordeste 25 Nordeste 0 -- -- 73
2019-12-03 23:00:00 0.7 4 Sur 14 Nordeste 0 -- -- 84
2019-12-03 22:00:00 -0.2 5 Norte 14 Noroeste 0 -- -- 94
2019-12-03 21:00:00 0.3 3 Nordeste 7 Norte 0 -- -- 93
2019-12-03 20:00:00 0.8 4 Norte 9 Noroeste 0 -- -- 94
2019-12-03 19:00:00 0.5 4 Sudoeste 6 Sudoeste 0 -- -- 93
2019-12-03 18:00:00 1.3 3 Nordeste 8 Sudeste 0 -- -- 82
2019-12-03 17:00:00 3.1 4 Nordeste 9 Sudoeste 0 -- -- 75
2019-12-03 16:00:00 4.5 4 Sudoeste 10 Sur 0 -- -- 75
2019-12-03 15:00:00 3.6 8 Este 11 Este 0 -- -- 79
2019-12-03 14:00:00 3.7 3 Este 12 Nordeste 0 -- -- 84
2019-12-03 13:00:00 2.7 6 Nordeste 14 Nordeste 0 -- -- 88
2019-12-03 12:00:00 2.3 8 Nordeste 12 Nordeste 0 -- -- 89
2019-12-03 11:00:00 2.2 7 Nordeste 11 Nordeste 0 -- -- 87
2019-12-03 10:00:00 1 6 Nordeste 10 Este 0 -- -- 94
2019-12-03 09:00:00 0.8 4 Nordeste 9 Nordeste 0 -- -- 93
2019-12-03 08:00:00 0.7 5 Norte 12 Nordeste 0 -- -- 96
2019-12-03 07:00:00 0.8 8 Nordeste 15 Nordeste 0.4 -- -- 97
2019-12-03 06:00:00 0.9 3 Este 20 Nordeste 0.4 -- -- 96
2019-12-03 05:00:00 0.8 3 Sudeste 16 Este 0.6 -- -- 96
2019-12-03 04:00:00 1.1 3 Sudeste 9 Norte 0 -- -- 95
2019-12-03 03:00:00 1 5 Nordeste 9 Nordeste 0.2 -- -- 96
2019-12-03 02:00:00 1.2 3 Este 6 Sudeste 0 -- -- 95
2019-12-03 01:00:00 1 0 Calma 9 Oeste 0.2 -- -- 96
2019-12-03 00:00:00 1.4 7 Nordeste 12 Nordeste 0 -- -- 97
2019-12-02 23:00:00 1.3 0 Calma 9 Sudeste 0 -- -- 97
2019-12-02 22:00:00 1.4 2 Noroeste 15 Norte 0 -- -- 98
2019-12-02 21:00:00 1.5 10 Nordeste 22 Nordeste 0 -- -- 98
2019-12-02 20:00:00 1.5 4 Sudoeste 15 Nordeste 0 -- -- 99
2019-12-02 19:00:00 1.5 12 Nordeste 22 Nordeste 0 -- -- 99
2019-12-02 18:00:00 1.8 14 Nordeste 25 Nordeste 0.2 -- -- 99
2019-12-02 17:00:00 2.4 14 Nordeste 29 Nordeste 0.8 -- -- 99
2019-12-02 16:00:00 2.5 17 Nordeste 31 Este 0.6 -- -- 98
2019-12-02 15:00:00 2.7 10 Nordeste 41 Este 3.6 -- -- 98
2019-12-02 14:00:00 3.3 10 Nordeste 38 Nordeste 3 -- -- 98
2019-12-02 13:00:00 3.4 13 Nordeste 36 Este 6 -- -- 98
2019-12-02 12:00:00 3.4 21 Nordeste 50 Este 4.4 -- -- 97
2019-12-02 11:00:00 3.7 12 Sudeste 35 Este 6.2 -- -- 98
2019-12-02 10:00:00 3.4 10 Sudeste 56 Este 10.4 -- -- 97
2019-12-02 09:00:00 3.8 15 Este 59 Nordeste 6.4 -- -- 96
2019-12-02 08:00:00 3.1 9 Oeste 21 Oeste 8 -- -- 91
2019-12-02 07:00:00 3.2 8 Oeste 28 Oeste 4 -- -- 91
2019-12-02 06:00:00 3.5 17 Oeste 22 Oeste 2 -- -- 88
2019-12-02 05:00:00 3.3 13 Oeste 27 Oeste 0.8 -- -- 90
2019-12-02 04:00:00 3.2 17 Oeste 27 Oeste 1.4 -- -- 88
2019-12-02 03:00:00 3.5 13 Oeste 21 Oeste 0.2 -- -- 87
2019-12-02 02:00:00 3.4 9 Oeste 18 Oeste 0.2 -- -- 88
2019-12-02 01:00:00 3.1 10 Oeste 17 Oeste 0.2 -- -- 91
2019-12-02 00:00:00 3.1 12 Oeste 23 Oeste 0.8 -- -- 90
2019-12-01 23:00:00 2.5 14 Oeste 24 Oeste 4 -- -- 91
2019-12-01 22:00:00 2.7 10 Oeste 21 Oeste 3.8 -- -- 91
2019-12-01 21:00:00 3.1 12 Oeste 45 Oeste 5.4 -- -- 90
2019-12-01 20:00:00 3.6 17 Oeste 34 Oeste 5 -- -- 91
2019-12-01 19:00:00 3.2 20 Oeste 33 Oeste 4 -- -- 89
2019-12-01 18:00:00 4.4 9 Oeste 19 Sudoeste 0.6 -- -- 88
2019-12-01 17:00:00 4.4 13 Oeste 21 Oeste 2.4 -- -- 90
2019-12-01 16:00:00 4.6 15 Noroeste 24 Oeste 3 -- -- 86
2019-12-01 15:00:00 4.9 9 Norte 19 Nordeste 2.4 -- -- 85
2019-12-01 14:00:00 7.1 4 Nordeste 12 Sur 0 -- -- 78
2019-12-01 13:00:00 6.6 4 Sudoeste 20 Sudoeste 0 -- -- 77
2019-12-01 12:00:00 7.1 8 Sudoeste 15 Sudoeste 0 -- -- 70
2019-12-01 11:00:00 6 6 Sudoeste 8 Sudoeste 0 -- -- 85
2019-12-01 10:00:00 5 5 Nordeste 8 Nordeste 0 -- -- 84
2019-12-01 09:00:00 4.5 3 Norte 8 Norte 0 -- -- 86
2019-12-01 08:00:00 4.7 3 Nordeste 6 Norte 0 -- -- 83
2019-12-01 07:00:00 4.8 7 Norte 18 Este 0 -- -- 83
2019-12-01 06:00:00 5.1 8 Nordeste 13 Nordeste 0 -- -- 80
2019-12-01 05:00:00 5.6 6 Noroeste 12 Norte 0 -- -- 74
2019-12-01 04:00:00 6.1 5 Norte 14 Norte 0 -- -- 67
2019-12-01 03:00:00 5.3 7 Norte 12 Nordeste 0 -- -- 72
2019-12-01 02:00:00 4.8 7 Norte 13 Norte 0 -- -- 75
2019-12-01 01:00:00 4.7 9 Norte 12 Norte 0 -- -- 76
2019-12-01 00:00:00 5.2 9 Norte 16 Noroeste 0 -- -- 74
2019-11-30 23:00:00 5.1 7 Norte 12 Noroeste 0 -- -- 78
2019-11-30 22:00:00 5 4 Norte 6 Norte 0 -- -- 86
2019-11-30 21:00:00 5 4 Noroeste 8 Noroeste 0 -- -- 90
2019-11-30 20:00:00 5.4 8 Noroeste 13 Noroeste 0 -- -- 88
2019-11-30 19:00:00 5.8 8 Noroeste 15 Oeste 0 -- -- 87
2019-11-30 18:00:00 6.8 12 Oeste 22 Oeste 0 -- -- 83
2019-11-30 17:00:00 6.7 6 Sudoeste 24 Noroeste 0 -- -- 86
2019-11-30 16:00:00 7.6 10 Oeste 17 Sudoeste 0.2 -- -- 83
2019-11-30 15:00:00 6.8 5 Sudoeste 18 Este 0 -- -- 94
2019-11-30 14:00:00 7.1 7 Nordeste 32 Oeste 0.2 -- -- 91
2019-11-30 13:00:00 7.3 17 Oeste 31 Sudoeste 1 -- -- 93
2019-11-30 12:00:00 7.3 18 Sudoeste 45 Oeste 2.6 -- -- 90
2019-11-30 11:00:00 7.6 19 Oeste 39 Noroeste 0.2 -- -- 89
2019-11-30 10:00:00 8.1 3 Sudoeste 12 Sur 0.6 -- -- 95
2019-11-30 09:00:00 9 3 Sur 27 Nordeste 1.4 -- -- 89
2019-11-30 08:00:00 12 9 Norte 21 Nordeste 0 -- -- 73
2019-11-30 07:00:00 12.4 9 Nordeste 15 Nordeste 0 -- -- 69
2019-11-30 06:00:00 11.8 10 Norte 15 Norte 0 -- -- 69
2019-11-30 05:00:00 11.1 7 Nordeste 17 Norte 0 -- -- 74
2019-11-30 04:00:00 10.7 6 Norte 18 Norte 0 -- -- 71
2019-11-30 03:00:00 10.1 7 Norte 17 Norte 0 -- -- 66
2019-11-30 02:00:00 9.7 9 Norte 15 Norte 0 -- -- 63
2019-11-30 01:00:00 8.7 9 Norte 14 Norte 0 -- -- 62
2019-11-30 00:00:00 8.5 9 Norte 14 Norte 0 -- -- 60
2019-11-29 23:00:00 8.5 7 Nordeste 14 Norte 0 -- -- 57
2019-11-29 22:00:00 9.3 5 Norte 9 Norte 0 -- -- 52
2019-11-29 21:00:00 8.5 4 Norte 8 Norte 0 -- -- 65
2019-11-29 20:00:00 8.6 2 Noroeste 7 Sudoeste 0 -- -- 63
2019-11-29 19:00:00 8.5 4 Noroeste 8 Oeste 0 -- -- 63
2019-11-29 18:00:00 8.8 6 Oeste 8 Oeste 0 -- -- 78
2019-11-29 17:00:00 9.8 0 Calma 5 Sur 0 -- -- 82
2019-11-29 16:00:00 11.3 4 Sudeste 9 Sudeste 0 -- -- 75
2019-11-29 15:00:00 12.1 4 Sudeste 10 Sur 0 -- -- 72
2019-11-29 14:00:00 10.4 3 Este 9 Sur 0 -- -- 75
2019-11-29 13:00:00 10.4 4 Este 8 Sudeste 0 -- -- 76
2019-11-29 12:00:00 10.1 5 Sudeste 11 Sudeste 0 -- -- 80
2019-11-29 11:00:00 9 5 Nordeste 12 Este 0 -- -- 83
2019-11-29 10:00:00 8 4 Nordeste 9 Norte 0 -- -- 90
2019-11-29 09:00:00 6.7 4 Norte 10 Noroeste 0 -- -- 89
2019-11-29 08:00:00 6.8 5 Sudoeste 8 Oeste 0 -- -- 95
2019-11-29 07:00:00 6.8 5 Noroeste 9 Sudoeste 0.2 -- -- 96
2019-11-29 06:00:00 7.4 4 Sudoeste 17 Noroeste 0 -- -- 96
2019-11-29 05:00:00 7.4 5 Sudeste 18 Oeste 0 -- -- 95
2019-11-29 04:00:00 7.6 6 Oeste 16 Noroeste 0 -- -- 95
2019-11-29 03:00:00 8.3 5 Sur 23 Oeste 0 -- -- 92
2019-11-29 02:00:00 8.7 7 Sudoeste 31 Sudoeste 0 -- -- 91
2019-11-29 01:00:00 9.3 17 Oeste 28 Oeste 0 -- -- 89
2019-11-29 00:00:00 8.9 12 Oeste 23 Oeste 1 -- -- 93
2019-11-28 23:00:00 8.2 2 Noroeste 8 Norte 1 -- -- 94
2019-11-28 22:00:00 8.4 5 Norte 8 Nordeste 0.2 -- -- 92
2019-11-28 21:00:00 9 3 Nordeste 20 Oeste 1.8 -- -- 89
2019-11-28 20:00:00 10 17 Sudoeste 45 Sudoeste 0.4 -- -- 80
2019-11-28 19:00:00 8.2 8 Norte 14 Norte 0 -- -- 90
2019-11-28 18:00:00 7.1 4 Nordeste 9 Nordeste 0.8 -- -- 96
2019-11-28 17:00:00 7.4 2 Nordeste 6 Sudoeste 1.4 -- -- 95
2019-11-28 16:00:00 7.4 3 Sudoeste 7 Sudoeste 1.2 -- -- 95
2019-11-28 15:00:00 7.3 3 Nordeste 8 Sur 0.8 -- -- 94
2019-11-28 14:00:00 8.3 4 Sur 11 Nordeste 0 -- -- 86
2019-11-28 13:00:00 8.9 3 Nordeste 9 Nordeste 0 -- -- 85
2019-11-28 12:00:00 8.3 4 Este 10 Nordeste 0 -- -- 86
2019-11-28 11:00:00 8 2 Sudeste 9 Sudeste 0 -- -- 86
2019-11-28 10:00:00 7.6 3 Nordeste 8 Norte 0 -- -- 86
2019-11-28 09:00:00 6.5 3 Sudoeste 8 Sur 0 -- -- 90
2019-11-28 08:00:00 6.5 5 Norte 11 Sudoeste 0 -- -- 87
2019-11-28 07:00:00 7.1 4 Norte 12 Sudoeste 0 -- -- 85
2019-11-28 06:00:00 7.7 7 Sudoeste 20 Oeste 0 -- -- 83
2019-11-28 05:00:00 7.2 3 Sudoeste 9 Noroeste 0 -- -- 79
2019-11-28 04:00:00 7.6 5 Noroeste 35 Oeste 0 -- -- 77
2019-11-28 03:00:00 7.9 5 Noroeste 14 Sudoeste 0 -- -- 73
2019-11-28 02:00:00 8.6 11 Oeste 32 Oeste 0 -- -- 70
2019-11-28 01:00:00 7.1 8 Nordeste 15 Noroeste 0 -- -- 76
2019-11-28 00:00:00 7.1 7 Nordeste 18 Norte 0 -- -- 78
2019-11-27 23:00:00 6.7 6 Norte 10 Noroeste 0 -- -- 80
2019-11-27 22:00:00 7.1 5 Noroeste 9 Norte 0 -- -- 79
2019-11-27 21:00:00 7.3 4 Norte 7 Norte 0.2 -- -- 80
2019-11-27 20:00:00 7.3 7 Norte 13 Norte 0 -- -- 80
2019-11-27 19:00:00 7 3 Nordeste 13 Noroeste 0 -- -- 83
2019-11-27 18:00:00 7.3 6 Sur 12 Nordeste 0 -- -- 82
2019-11-27 17:00:00 7.9 5 Nordeste 8 Sur 0 -- -- 80
2019-11-27 16:00:00 7.7 3 Norte 33 Noroeste 0 -- -- 80
2019-11-27 15:00:00 8.6 18 Noroeste 33 Oeste 0 -- -- 71
2019-11-27 14:00:00 10.4 11 Sudoeste 30 Sudoeste 0 -- -- 58
2019-11-27 06:00:00 -- -- -- -- -- -- -- -- --
2019-11-27 05:00:00 6.9 7 Norte 14 Norte 0 -- -- 66
2019-11-27 04:00:00 7.7 4 Nordeste 19 Noroeste 0 -- -- 62
2019-11-27 03:00:00 8.4 8 Sudoeste 27 Este 0 -- -- 56
2019-11-27 02:00:00 8.5 10 Este 40 Oeste 0 -- -- 58
2019-11-27 01:00:00 8.9 12 Noroeste 22 Este 0 -- -- 53
2019-11-27 00:00:00 9.7 10 Oeste 31 Oeste 0 -- -- 50
2019-11-26 23:00:00 8.7 9 Norte 14 Noroeste 0 -- -- 69
2019-11-26 22:00:00 9.3 9 Norte 31 Noroeste 0 -- -- 71
2019-11-26 21:00:00 10.4 7 Noroeste 39 Sudoeste 0.2 -- -- 68
2019-11-26 20:00:00 10.6 10 Noroeste 33 Oeste 0.4 -- -- 72
2019-11-26 19:00:00 12.8 18 Sudoeste 77 Sudoeste 0 -- -- 54
2019-11-26 18:00:00 14.1 41 Sudoeste 71 Oeste 0 -- -- 41
2019-11-26 17:00:00 14.9 40 Sudoeste 82 Sudoeste 0.2 -- -- 38
2019-11-26 16:00:00 15.2 12 Oeste 57 Sur 0 -- -- 38
2019-11-26 15:00:00 15.1 12 Oeste 32 Nordeste 0 -- -- 44
2019-11-26 14:00:00 15.3 12 Nordeste 25 Nordeste 0 -- -- 50
2019-11-26 13:00:00 13.9 15 Nordeste 21 Nordeste 0 -- -- 62
2019-11-26 12:00:00 13.2 5 Nordeste 19 Nordeste 0 -- -- 68
2019-11-26 11:00:00 13.2 9 Norte 21 Nordeste 0 -- -- 64
2019-11-26 10:00:00 12.5 9 Nordeste 18 Nordeste 0 -- -- 68
2019-11-26 09:00:00 11.9 5 Norte 18 Nordeste 0 -- -- 70
2019-11-26 08:00:00 11.7 8 Norte 19 Norte 0 -- -- 67
2019-11-26 07:00:00 11 6 Norte 17 Norte 0 -- -- 70
2019-11-26 06:00:00 11.4 6 Norte 15 Norte 0 -- -- 68
2019-11-26 05:00:00 11.6 8 Norte 18 Norte 0 -- -- 66
2019-11-26 04:00:00 10.9 9 Norte 15 Norte 0 -- -- 58
2019-11-26 03:00:00 10.4 10 Norte 15 Norte 0 -- -- 55
2019-11-26 02:00:00 10.1 6 Norte 17 Norte 0 -- -- 56
2019-11-26 01:00:00 10 6 Norte 13 Oeste 0 -- -- 55
2019-11-26 00:00:00 10 8 Norte 13 Norte 0 -- -- 56
2019-11-25 23:00:00 9.7 7 Nordeste 13 Norte 0 -- -- 58
2019-11-25 22:00:00 9.5 6 Norte 12 Norte 0 -- -- 58
2019-11-25 21:00:00 8.5 3 Sudoeste 9 Sudoeste 0 -- -- 76
2019-11-25 20:00:00 7.7 4 Oeste 9 Sudoeste 0 -- -- 94
2019-11-25 19:00:00 8.2 3 Nordeste 10 Nordeste 0 -- -- 96
2019-11-25 18:00:00 8.5 3 Nordeste 9 Nordeste 0 -- -- 95
2019-11-25 17:00:00 9.1 2 Este 8 Sudoeste 0 -- -- 94
2019-11-25 16:00:00 9.8 2 Sudoeste 8 Sur 0 -- -- 90
2019-11-25 15:00:00 10.8 4 Sudeste 8 Sur 0 -- -- 84
2019-11-25 14:00:00 11.3 3 Este 10 Sur 0 -- -- 77
2019-11-25 13:00:00 11.5 0 Calma 10 Sur 0 -- -- 78
2019-11-25 12:00:00 11.5 3 Este 9 Sur 0 -- -- 71
2019-11-25 11:00:00 11.1 4 Sur 9 Sudoeste 0 -- -- 70
2019-11-25 10:00:00 9.6 3 Sudeste 8 Noroeste 0 -- -- 75
2019-11-25 09:00:00 8.4 5 Norte 10 Norte 0 -- -- 76
2019-11-25 08:00:00 8.1 4 Norte 10 Norte 0 -- -- 75
2019-11-25 07:00:00 8.6 6 Oeste 10 Oeste 0 -- -- 73
2019-11-25 06:00:00 8.9 5 Norte 17 Norte 0 -- -- 73
2019-11-25 05:00:00 9.5 3 Nordeste 24 Noroeste 0 -- -- 69
2019-11-25 04:00:00 11 13 Noroeste 21 Norte 0 -- -- 61
2019-11-25 03:00:00 9.2 7 Nordeste 16 Nordeste 0 -- -- 68
2019-11-25 02:00:00 8.7 9 Nordeste 17 Noroeste 0 -- -- 72
2019-11-25 01:00:00 8.5 6 Norte 13 Nordeste 0 -- -- 75
2019-11-25 00:00:00 8.1 10 Norte 15 Norte 0 -- -- 75
2019-11-24 23:00:00 8.1 8 Nordeste 19 Nordeste 0 -- -- 77
2019-11-24 22:00:00 7.9 10 Nordeste 19 Este 0 -- -- 78
2019-11-24 21:00:00 7.8 6 Nordeste 22 Nordeste 0 -- -- 80
2019-11-24 20:00:00 7 14 Nordeste 23 Nordeste 0.2 -- -- 84
2019-11-24 19:00:00 6.9 13 Norte 19 Norte 0.2 -- -- 82
2019-11-24 18:00:00 7.5 9 Nordeste 15 Norte 0.2 -- -- 75
2019-11-24 17:00:00 8.2 8 Norte 10 Nordeste 0 -- -- 64
2019-11-24 16:00:00 9 5 Este 16 Nordeste 0 -- -- 60
2019-11-24 15:00:00 8.4 4 Norte 8 Sur 0 -- -- 63
2019-11-24 14:00:00 7.8 4 Nordeste 13 Nordeste 0 -- -- 65
2019-11-24 13:00:00 7.7 8 Nordeste 12 Nordeste 0 -- -- 69
2019-11-24 12:00:00 6.6 7 Nordeste 13 Nordeste 0 -- -- 73
2019-11-24 11:00:00 6.6 0 Calma 16 Oeste 0 -- -- 72
2019-11-24 10:00:00 6 13 Oeste 26 Oeste 0 -- -- 69
2019-11-24 09:00:00 5.8 15 Oeste 27 Oeste 0 -- -- 71
2019-11-24 08:00:00 5.5 13 Sudoeste 31 Oeste 0 -- -- 73
2019-11-24 07:00:00 5.3 14 Oeste 41 Sudoeste 0 -- -- 74
2019-11-24 06:00:00 5.7 22 Oeste 44 Sudoeste 0 -- -- 73
2019-11-24 05:00:00 5.3 24 Sudoeste 50 Sudoeste 0 -- -- 77
2019-11-24 04:00:00 4.8 30 Oeste 51 Sudoeste 0.2 -- -- 82
2019-11-24 03:00:00 5 24 Oeste 53 Sudoeste 0 -- -- 79
2019-11-24 02:00:00 4.9 31 Oeste 57 Sudoeste 0.2 -- -- 82
2019-11-24 01:00:00 4.9 30 Oeste 57 Sudoeste 0 -- -- 79
2019-11-24 00:00:00 5 33 Sudoeste 62 Sudoeste 0.6 -- -- 80
2019-11-23 23:00:00 4.4 28 Sudoeste 53 Sudoeste 0.8 -- -- 84
2019-11-23 22:00:00 4.7 35 Sudoeste 61 Sudoeste 1 -- -- 79
2019-11-23 21:00:00 4.5 30 Oeste 58 Sudoeste 0 -- -- 79
2019-11-23 20:00:00 4.5 22 Oeste 58 Oeste 0.4 -- -- 79
2019-11-23 19:00:00 4.7 33 Sudoeste 54 Oeste 1.4 -- -- 79
2019-11-23 18:00:00 4.5 34 Sudoeste 55 Sudoeste 1 -- -- 80
2019-11-23 17:00:00 4.7 28 Sudoeste 58 Oeste 1.4 -- -- 80
2019-11-23 16:00:00 3.4 24 Sudoeste 51 Oeste 2.8 -- -- 88
2019-11-23 15:00:00 4.3 36 Sudoeste 62 Sudoeste 2.4 -- -- 86
2019-11-23 14:00:00 4.7 33 Sudoeste 77 Sudoeste 1.8 -- -- 85
2019-11-23 13:00:00 4.6 39 Sudoeste 72 Sudoeste 1.2 -- -- 82
2019-11-23 12:00:00 4.9 43 Sudoeste 78 Sudoeste 0.4 -- -- 79
2019-11-23 11:00:00 4.6 48 Sudoeste 96 Sudoeste 0.4 -- -- 76
2019-11-23 10:00:00 3.5 49 Sudoeste 103 Oeste 0.8 -- -- 89
2019-11-23 09:00:00 3.6 51 Sudoeste 98 Sudoeste 1.8 -- -- 83
2019-11-23 08:00:00 3.4 51 Oeste 94 Oeste 1.4 -- -- 85
2019-11-23 07:00:00 4.2 63 Sudoeste 107 Sudoeste 1.6 -- -- 78
2019-11-23 06:00:00 4.3 50 Sudoeste 92 Sudoeste 6 -- -- 86
2019-11-23 05:00:00 4.7 51 Sudoeste 103 Oeste 9.8 -- -- 88
2019-11-23 04:00:00 4.7 53 Sudoeste 83 Sudoeste 7.2 -- -- 91
2019-11-23 03:00:00 4.9 48 Sudoeste 84 Sudoeste 3.6 -- -- 83
2019-11-23 02:00:00 6.2 26 Sudoeste 44 Oeste 1 -- -- 79
2019-11-23 01:00:00 7.2 7 Oeste 13 Sudoeste 0 -- -- 71
2019-11-23 00:00:00 7.7 5 Norte 22 Noroeste 0 -- -- 65
2019-11-22 23:00:00 8.1 5 Sudoeste 13 Este 0 -- -- 62
2019-11-22 22:00:00 8.6 10 Noroeste 36 Oeste 0 -- -- 56
2019-11-22 21:00:00 9.8 18 Oeste 52 Oeste 0 -- -- 51
2019-11-22 20:00:00 9.9 28 Sudoeste 50 Sudoeste 0 -- -- 50
2019-11-22 19:00:00 9.3 14 Sudoeste 36 Sur 0 -- -- 54
2019-11-22 18:00:00 8.8 4 Norte 18 Noroeste 0 -- -- 70
2019-11-22 17:00:00 9.5 7 Oeste 14 Noroeste 0 -- -- 73
2019-11-22 16:00:00 10.8 4 Norte 26 Nordeste 0 -- -- 70
2019-11-22 15:00:00 12.7 10 Oeste 60 Sudoeste 0 -- -- 57
2019-11-22 14:00:00 13.4 42 Sudoeste 91 Oeste 0 -- -- 51
2019-11-22 13:00:00 12.9 31 Sudoeste 85 Sur 0.2 -- -- 51
2019-11-22 12:00:00 8.8 17 Sur 82 Sur 0.4 -- -- 72
2019-11-22 11:00:00 11.9 70 Sudoeste 129 Oeste 0.2 -- -- 52
2019-11-22 10:00:00 12 54 Sudoeste 93 Sudoeste 0.2 -- -- 46
2019-11-22 09:00:00 8.4 22 Sur 98 Oeste 0.6 -- -- 63
2019-11-22 08:00:00 9.4 49 Oeste 101 Oeste 0.2 -- -- 61
2019-11-22 07:00:00 9.3 24 Oeste 53 Oeste 0 -- -- 54
2019-11-22 06:00:00 8.3 30 Oeste 81 Sudoeste 0 -- -- 57
2019-11-22 05:00:00 9 53 Sudoeste 86 Sudoeste 0 -- -- 48
2019-11-22 04:00:00 8.1 36 Sudoeste 69 Oeste 0 -- -- 48
2019-11-22 03:00:00 7.1 10 Sur 57 Sudoeste 0 -- -- 56
2019-11-22 02:00:00 6.8 7 Sudoeste 24 Sudoeste 0 -- -- 50
2019-11-22 01:00:00 6.9 13 Oeste 24 Oeste 0 -- -- 42
2019-11-22 00:00:00 6.5 4 Nordeste 20 Sudoeste 0 -- -- 53
2019-11-21 23:00:00 5.7 6 Noroeste 14 Norte 0 -- -- 52
2019-11-21 22:00:00 5.1 5 Norte 11 Nordeste 0 -- -- 58
2019-11-21 21:00:00 5.3 2 Noroeste 10 Sudoeste 0 -- -- 52
2019-11-21 20:00:00 5.7 3 Sudoeste 13 Oeste 0 -- -- 48
2019-11-21 19:00:00 5.5 6 Norte 12 Norte 0 -- -- 51
2019-11-21 18:00:00 5.3 5 Norte 10 Nordeste 0 -- -- 59
2019-11-21 17:00:00 8.5 5 Sur 10 Sur 0 -- -- 47
2019-11-21 16:00:00 9.4 4 Sur 10 Sur 0 -- -- 49
2019-11-21 15:00:00 9.3 2 Este 17 Sudeste 0 -- -- 47
2019-11-21 14:00:00 9.4 5 Sudeste 12 Nordeste 0 -- -- 53
2019-11-21 13:00:00 9.6 5 Sur 14 Sur 0 -- -- 53
2019-11-21 12:00:00 8.7 5 Sudeste 12 Sudeste 0 -- -- 65
2019-11-21 11:00:00 7.1 2 Noroeste 7 Norte 0 -- -- 70
2019-11-21 10:00:00 5.6 0 Calma 13 Nordeste 0 -- -- 75
2019-11-21 09:00:00 3.7 4 Nordeste 8 Norte 0 -- -- 82
2019-11-21 08:00:00 3.9 5 Sudoeste 13 Noroeste 0.6 -- -- 82
2019-11-21 07:00:00 4.3 5 Noroeste 11 Nordeste 0.2 -- -- 80
2019-11-21 06:00:00 4.4 6 Nordeste 9 Norte 0 -- -- 77
2019-11-21 05:00:00 4.4 5 Norte 11 Norte 0 -- -- 74
2019-11-21 04:00:00 4.8 4 Norte 10 Norte 0 -- -- 70
2019-11-21 03:00:00 4.4 2 Norte 12 Noroeste 0 -- -- 74
2019-11-21 02:00:00 4.8 3 Noroeste 9 Noroeste 0 -- -- 71
2019-11-21 01:00:00 4.1 5 Norte 10 Norte 0 -- -- 77
2019-11-21 00:00:00 4.4 6 Norte 17 Norte 0 -- -- 76
2019-11-20 23:00:00 4.9 9 Nordeste 20 Nordeste 0 -- -- 74
2019-11-20 22:00:00 5.2 9 Norte 14 Norte 0 -- -- 71
2019-11-20 21:00:00 6.2 4 Noroeste 12 Oeste 0 -- -- 61
2019-11-20 20:00:00 5.9 3 Este 9 Este 0 -- -- 67
2019-11-20 19:00:00 5.7 5 Norte 14 Nordeste 0 -- -- 74
2019-11-20 18:00:00 6 6 Nordeste 17 Nordeste 0 -- -- 75
2019-11-20 17:00:00 6.6 3 Norte 9 Nordeste 0 -- -- 74
2019-11-20 16:00:00 7.9 4 Norte 13 Nordeste 0 -- -- 70
2019-11-20 15:00:00 8.7 4 Nordeste 10 Norte 0 -- -- 69
2019-11-20 14:00:00 9.1 5 Nordeste 12 Nordeste 0 -- -- 67
2019-11-20 13:00:00 9 6 Norte 14 Norte 0 -- -- 67
2019-11-20 12:00:00 6.8 6 Nordeste 18 Nordeste 0 -- -- 74
2019-11-20 11:00:00 7.1 10 Nordeste 17 Nordeste 0 -- -- 73
2019-11-20 10:00:00 6.8 4 Norte 18 Norte 0 -- -- 74
2019-11-20 09:00:00 5.6 6 Norte 14 Nordeste 0 -- -- 75
2019-11-20 08:00:00 5.3 6 Norte 12 Norte 0 -- -- 75
2019-11-20 07:00:00 4.8 5 Norte 14 Norte 0 -- -- 75
2019-11-20 06:00:00 5.1 8 Norte 13 Norte 0 -- -- 72
2019-11-20 05:00:00 4.8 5 Norte 12 Nordeste 0 -- -- 70
2019-11-20 04:00:00 5.1 4 Nordeste 12 Norte 0 -- -- 71
2019-11-20 03:00:00 4.9 4 Nordeste 8 Nordeste 0 -- -- 61
2019-11-20 02:00:00 4.5 5 Norte 8 Norte 0 -- -- 59
2019-11-20 01:00:00 4.8 5 Norte 10 Norte 0 -- -- 51
2019-11-20 00:00:00 5.4 3 Norte 10 Norte 0 -- -- 47
2019-11-19 23:00:00 5.4 3 Norte 6 Norte 0 -- -- 50
2019-11-19 22:00:00 5.7 3 Norte 6 Norte 0 -- -- 44
2019-11-19 21:00:00 5.3 4 Norte 7 Norte 0 -- -- 49
2019-11-19 20:00:00 5.4 5 Norte 8 Norte 0 -- -- 45
2019-11-19 19:00:00 5.9 3 Noroeste 8 Noroeste 0 -- -- 37
2019-11-19 18:00:00 5.9 3 Norte 12 Oeste 0 -- -- 43
2019-11-19 17:00:00 6.3 8 Oeste 12 Oeste 0 -- -- 44
2019-11-19 16:00:00 7.2 3 Nordeste 8 Sur 0 -- -- 60
2019-11-19 15:00:00 7.3 3 Nordeste 6 Sudeste 0 -- -- 55
2019-11-19 14:00:00 7.8 3 Este 9 Nordeste 0 -- -- 52
2019-11-19 13:00:00 7.5 3 Nordeste 7 Sudeste 0 -- -- 58
2019-11-19 12:00:00 6 2 Nordeste 8 Norte 0 -- -- 52
2019-11-19 11:00:00 4.1 3 Norte 4 Norte 0 -- -- 66
2019-11-19 10:00:00 3.4 0 Calma 5 Sudoeste 0 -- -- 67
2019-11-19 09:00:00 3.1 3 Norte 6 Norte 0 -- -- 68
2019-11-19 08:00:00 2.1 3 Norte 6 Sur 0 -- -- 75
2019-11-19 07:00:00 1.8 3 Norte 6 Norte 0 -- -- 78
2019-11-19 06:00:00 1.7 3 Norte 5 Norte 0 -- -- 80
2019-11-19 05:00:00 2.1 2 Norte 6 Norte 0 -- -- 80
2019-11-19 04:00:00 2.3 0 Calma 8 Norte 0 -- -- 81
2019-11-19 03:00:00 2.6 0 Calma 5 Norte 0 -- -- 79
2019-11-19 02:00:00 2.9 0 Calma 12 Oeste 0 -- -- 82
2019-11-19 01:00:00 2.7 4 Noroeste 8 Sudoeste 0 -- -- 86
2019-11-19 00:00:00 2.8 4 Norte 8 Norte 0 -- -- 87
2019-11-18 23:00:00 2.8 2 Nordeste 15 Oeste 0 -- -- 89
2019-11-18 22:00:00 3.8 13 Oeste 26 Oeste 0 -- -- 77
2019-11-18 21:00:00 3.9 16 Oeste 29 Oeste 0 -- -- 78
2019-11-18 20:00:00 3.7 22 Oeste 26 Oeste 0 -- -- 81
2019-11-18 19:00:00 3.7 17 Oeste 24 Oeste 0 -- -- 83
2019-11-18 18:00:00 3.5 11 Oeste 27 Sudoeste 0 -- -- 86
2019-11-18 17:00:00 3.9 10 Oeste 28 Sudoeste 0 -- -- 81
2019-11-18 16:00:00 3.7 17 Oeste 28 Oeste 0 -- -- 83
2019-11-18 15:00:00 3.3 17 Oeste 27 Oeste 0.6 -- -- 87
2019-11-18 14:00:00 3.7 17 Oeste 31 Oeste 0 -- -- 83
2019-11-18 13:00:00 4.2 12 Oeste 37 Sudoeste 0 -- -- 81
2019-11-18 12:00:00 3.4 21 Sudoeste 42 Sudoeste 0.2 -- -- 88
2019-11-18 11:00:00 2.8 17 Sudoeste 32 Sudoeste 1.2 -- -- 90
2019-11-18 10:00:00 2.9 9 Oeste 31 Sudoeste 0.8 -- -- 90
2019-11-18 09:00:00 2.6 12 Oeste 27 Sudoeste 1.6 -- -- 90
2019-11-18 08:00:00 2.2 14 Sudoeste 23 Sudoeste 3.2 -- -- 92
2019-11-18 07:00:00 2.8 7 Oeste 22 Oeste 1.2 -- -- 90
2019-11-18 06:00:00 2.8 10 Oeste 22 Oeste 0.8 -- -- 93
2019-11-18 05:00:00 2.9 9 Oeste 29 Sudoeste 0.8 -- -- 91
2019-11-18 04:00:00 2.1 16 Oeste 26 Norte 1.4 -- -- 91
2019-11-18 03:00:00 3.1 7 Oeste 26 Oeste 1.8 -- -- 91
2019-11-18 02:00:00 2.6 8 Oeste 24 Oeste 2.6 -- -- 93
2019-11-18 01:00:00 2.4 6 Oeste 25 Sudoeste 2.4 -- -- 90
2019-11-18 00:00:00 2.6 9 Sudoeste 31 Oeste 3.4 -- -- 93
2019-11-17 23:00:00 2.4 17 Oeste 37 Oeste 3 -- -- 91
2019-11-17 22:00:00 2.7 13 Oeste 40 Sudoeste 1.4 -- -- 91
2019-11-17 21:00:00 2 26 Oeste 38 Oeste 3.4 -- -- 92
2019-11-17 20:00:00 2.3 26 Oeste 44 Oeste 4.4 -- -- 89
2019-11-17 19:00:00 2.6 24 Oeste 39 Oeste 2.8 -- -- 88
2019-11-17 18:00:00 2.7 17 Oeste 50 Sudoeste 2.2 -- -- 88
2019-11-17 17:00:00 4.1 24 Oeste 52 Sudoeste 0.4 -- -- 82
2019-11-17 16:00:00 6 25 Oeste 59 Oeste 0 -- -- 71
2019-11-17 15:00:00 5.2 39 Sudoeste 60 Sudoeste 0.4 -- -- 80
2019-11-17 14:00:00 4.5 29 Oeste 52 Oeste 0.4 -- -- 85
2019-11-17 13:00:00 7 24 Sudoeste 57 Sudoeste 0.2 -- -- 72
2019-11-17 12:00:00 5.4 27 Oeste 55 Oeste 0.4 -- -- 85
2019-11-17 11:00:00 5.7 25 Oeste 47 Sudoeste 0.8 -- -- 90
2019-11-17 10:00:00 6.3 25 Oeste 42 Sudoeste 0.2 -- -- 88
2019-11-17 09:00:00 5.9 17 Sudoeste 41 Sudoeste 0.6 -- -- 91
2019-11-17 08:00:00 5.3 6 Oeste 21 Oeste 2.4 -- -- 90
2019-11-17 07:00:00 5.3 8 Oeste 17 Oeste 0.4 -- -- 86
2019-11-17 06:00:00 5.7 7 Noroeste 26 Oeste 0 -- -- 82
2019-11-17 05:00:00 5.9 17 Oeste 27 Oeste 0.2 -- -- 80
2019-11-17 04:00:00 5.8 15 Oeste 30 Oeste 0 -- -- 78
2019-11-17 03:00:00 5.4 23 Oeste 35 Oeste 0 -- -- 81
2019-11-17 02:00:00 4.7 20 Oeste 39 Oeste 0 -- -- 87
2019-11-17 01:00:00 4.5 24 Oeste 35 Oeste 0 -- -- 85
2019-11-17 00:00:00 4.3 17 Oeste 39 Sudoeste 0 -- -- 81
2019-11-16 23:00:00 3.8 19 Oeste 36 Oeste 0 -- -- 81
2019-11-16 22:00:00 3.7 21 Oeste 36 Oeste 0 -- -- 76
2019-11-16 21:00:00 3.9 21 Oeste 39 Oeste 0 -- -- 72
2019-11-16 20:00:00 3.4 22 Oeste 40 Oeste 0 -- -- 72
2019-11-16 19:00:00 3.1 19 Oeste 34 Oeste 0 -- -- 77
2019-11-16 18:00:00 2.9 22 Oeste 45 Sudoeste 0 -- -- 76
2019-11-16 17:00:00 3.5 23 Sudoeste 58 Sudoeste 0.2 -- -- 69
2019-11-16 16:00:00 3.1 40 Sudoeste 57 Sudoeste 1 -- -- 76
2019-11-16 15:00:00 2.7 22 Oeste 41 Oeste 1.8 -- -- 87
2019-11-16 14:00:00 3.1 18 Oeste 46 Sudoeste 1.4 -- -- 83
2019-11-16 13:00:00 3.5 27 Sudoeste 60 Sudoeste 2.2 -- -- 80
2019-11-16 12:00:00 4.1 32 Sudoeste 55 Sudoeste 2.4 -- -- 73
2019-11-16 11:00:00 3.7 31 Oeste 61 Sudoeste 2.4 -- -- 78
2019-11-16 10:00:00 2.6 28 Oeste 54 Oeste 2 -- -- 86
2019-11-16 09:00:00 2.8 28 Oeste 48 Sudoeste 2 -- -- 83
2019-11-16 08:00:00 2.6 24 Oeste 43 Oeste 1 -- -- 83
2019-11-16 07:00:00 2.7 27 Oeste 44 Oeste 1.2 -- -- 79
2019-11-16 06:00:00 2.5 30 Oeste 44 Oeste 1 -- -- 78
2019-11-16 05:00:00 2.4 24 Oeste 48 Oeste 1.4 -- -- 80
2019-11-16 04:00:00 2.3 24 Sudoeste 42 Sudoeste 1.4 -- -- 81
2019-11-16 03:00:00 2.3 28 Sudoeste 49 Sudoeste 2 -- -- 83
2019-11-16 02:00:00 2.1 22 Sudoeste 41 Sudoeste 0.8 -- -- 88
2019-11-16 01:00:00 1.6 20 Oeste 31 Oeste 0.8 -- -- 89
2019-11-16 00:00:00 1.2 17 Oeste 23 Oeste 0.8 -- -- 91
2019-11-15 23:00:00 0.9 13 Oeste 22 Oeste 0.4 -- -- 94
2019-11-15 22:00:00 0.5 0 Calma 22 Sudoeste 0.4 -- -- 96
2019-11-15 21:00:00 0.7 9 Oeste 30 Sudoeste 0.6 -- -- 93
2019-11-15 20:00:00 0.7 18 Oeste 34 Sudoeste 0.8 -- -- 94
2019-11-15 19:00:00 1.1 16 Oeste 37 Oeste 1 -- -- 91
2019-11-15 18:00:00 1.2 17 Oeste 44 Sudoeste 1.8 -- -- 89
2019-11-15 17:00:00 1.3 20 Sudoeste 45 Sudoeste 1.6 -- -- 91
2019-11-15 16:00:00 1.1 19 Oeste 39 Oeste 1.6 -- -- 92
2019-11-15 15:00:00 1.5 21 Oeste 36 Oeste 3 -- -- 89
2019-11-15 14:00:00 0.7 23 Oeste 37 Oeste 2.2 -- -- 94
2019-11-15 13:00:00 0.5 0 Calma -- -- 1 -- -- 95
2019-11-15 12:00:00 0.4 0 Calma 19 Oeste 1 -- -- 95
2019-11-15 11:00:00 0.6 14 Sudoeste 67 Sudoeste 2 -- -- 94
2019-11-15 10:00:00 1 34 Sudoeste 58 Sudoeste 2 -- -- 92
2019-11-15 09:00:00 1.5 15 Oeste 64 Sudoeste 3.2 -- -- 91
2019-11-15 08:00:00 1.8 14 Oeste 48 Sur 3 -- -- 91
2019-11-15 07:00:00 1.9 13 Noroeste 51 Sudoeste 2.2 -- -- 89
2019-11-15 06:00:00 1.6 20 Sudoeste 51 Sudoeste 0.4 -- -- 90
2019-11-15 05:00:00 1.3 13 Oeste 39 Sudoeste 0.6 -- -- 91
2019-11-15 04:00:00 1.2 13 Oeste 41 Oeste 0.4 -- -- 91
2019-11-15 03:00:00 1.6 22 Sudoeste 40 Sudoeste 1.6 -- -- 90
2019-11-15 02:00:00 1.1 17 Oeste 36 Sudoeste 1.2 -- -- 91
2019-11-15 01:00:00 1.1 25 Oeste 36 Oeste 0.6 -- -- 91
2019-11-15 00:00:00 2 24 Oeste 45 Oeste 0.2 -- -- 85
2019-11-14 23:00:00 1.2 24 Oeste 37 Oeste 0 -- -- 88
2019-11-14 22:00:00 1.7 26 Oeste 33 Oeste 0.2 -- -- 81
2019-11-14 21:00:00 1.1 18 Oeste 34 Oeste 0 -- -- 90
2019-11-14 20:00:00 1.1 22 Sudoeste 44 Sudoeste 0.4 -- -- 88
2019-11-14 19:00:00 1.6 28 Oeste 52 Sudoeste 1 -- -- 86
2019-11-14 18:00:00 0.8 13 Oeste 23 Oeste 1 -- -- 93
2019-11-14 17:00:00 1.9 20 Oeste 32 Sudoeste 0.2 -- -- 86
2019-11-14 16:00:00 1.8 3 Noroeste 9 Sudoeste 0.6 -- -- 89
2019-11-14 15:00:00 2.3 3 Noroeste 9 Norte 0.4 -- -- 80
2019-11-14 14:00:00 2.7 5 Nordeste 18 Nordeste 0.4 -- -- 76
2019-11-14 13:00:00 4.2 5 Nordeste 13 Este 0 -- -- 67
2019-11-14 12:00:00 3.9 5 Este 14 Este 0.2 -- -- 66
2019-11-14 11:00:00 4.1 4 Sudeste 18 Sudeste 1 -- -- 65
2019-11-14 10:00:00 2.6 5 Nordeste 43 Oeste 0 -- -- 67
2019-11-14 09:00:00 1.9 26 Oeste 60 Sudoeste 0 -- -- 63
2019-11-14 08:00:00 1.9 33 Oeste 57 Oeste 0 -- -- 65
2019-11-14 07:00:00 1.6 21 Oeste 60 Sudoeste 0 -- -- 72
2019-11-14 06:00:00 1.5 30 Oeste 55 Oeste 0.4 -- -- 75
2019-11-14 05:00:00 1.1 30 Sudoeste 44 Sudoeste 0.6 -- -- 84
2019-11-14 04:00:00 0.6 22 Sudoeste 41 Sudoeste 1 -- -- 93
2019-11-14 03:00:00 1.1 17 Oeste 40 Sudoeste 2.6 -- -- 92
2019-11-14 02:00:00 1.2 22 Oeste 43 Oeste 5 -- -- 92
2019-11-14 01:00:00 2.9 16 Oeste 35 Oeste 4.4 -- -- 89
2019-11-14 00:00:00 4.3 16 Oeste 45 Oeste 4.4 -- -- 87
2019-11-13 23:00:00 6.1 20 Noroeste 39 Noroeste 0 -- -- 80
2019-11-13 22:00:00 7.4 10 Oeste 37 Oeste 0 -- -- 63
2019-11-13 21:00:00 5.2 5 Noroeste 17 Noroeste 0 -- -- 90
2019-11-13 20:00:00 5.6 5 Oeste 9 Oeste 0 -- -- 91
2019-11-13 19:00:00 5.5 2 Noroeste 18 Noroeste 0 -- -- 94
2019-11-13 18:00:00 5.7 4 Sudoeste 9 Sur 0 -- -- 91
2019-11-13 17:00:00 7.5 3 Este 9 Sur 0 -- -- 85
2019-11-13 16:00:00 7 4 Sudoeste 26 Sudoeste 0 -- -- 87
2019-11-13 15:00:00 8.3 6 Sur 20 Sudoeste 0 -- -- 89
2019-11-13 14:00:00 7.9 17 Sudoeste 38 Sudoeste 0.2 -- -- 86
2019-11-13 13:00:00 6.3 16 Oeste 36 Sudoeste 0.2 -- -- 88
2019-11-13 12:00:00 6.1 21 Sudoeste 35 Oeste 0 -- -- 91
2019-11-13 11:00:00 6 14 Sudoeste 31 Sudoeste 0.4 -- -- 94
2019-11-13 10:00:00 6 11 Sudoeste 22 Oeste 0.2 -- -- 94
2019-11-13 09:00:00 5.4 14 Oeste 20 Oeste 0.2 -- -- 93
2019-11-13 08:00:00 5.2 13 Oeste 15 Oeste 2.2 -- -- 95
2019-11-13 07:00:00 5.5 5 Sudoeste 53 Noroeste 6 -- -- 94
2019-11-13 06:00:00 5.8 7 Oeste 31 Oeste 5 -- -- 96
2019-11-13 05:00:00 6.1 10 Sudoeste 31 Oeste 3.4 -- -- 95
2019-11-13 04:00:00 6 9 Oeste 31 Oeste 5.4 -- -- 98
2019-11-13 03:00:00 6.1 4 Sudeste 24 Oeste 6.2 -- -- 98
2019-11-13 02:00:00 5.8 5 Norte 9 Norte 6.2 -- -- 98
2019-11-13 01:00:00 5.6 6 Norte 9 Nordeste 2.2 -- -- 98
2019-11-13 00:00:00 5.6 8 Nordeste 12 Nordeste 2 -- -- 97
2019-11-12 23:00:00 5.6 7 Norte 11 Norte 2.6 -- -- 98
2019-11-12 22:00:00 5.3 5 Nordeste 11 Norte 1.6 -- -- 97
2019-11-12 21:00:00 5 5 Nordeste 15 Nordeste 2.8 -- -- 97
2019-11-12 20:00:00 5 6 Nordeste 15 Nordeste 2 -- -- 96
2019-11-12 19:00:00 5.2 10 Nordeste 18 Nordeste 2.8 -- -- 95
2019-11-12 18:00:00 5.5 8 Nordeste 13 Nordeste 2.8 -- -- 92
2019-11-12 17:00:00 5.9 6 Nordeste 10 Nordeste 0.8 -- -- 90
2019-11-12 16:00:00 6.9 4 Norte 7 Norte 0.6 -- -- 86
2019-11-12 15:00:00 7.7 0 Calma 18 Oeste 0.2 -- -- 81
2019-11-12 14:00:00 7.9 9 Sudoeste 32 Sudoeste 0 -- -- 75
2019-11-12 13:00:00 7.9 22 Sudoeste 39 Sudoeste 0 -- -- 73
2019-11-12 12:00:00 6.6 26 Sudoeste 45 Sudoeste 0 -- -- 76
2019-11-12 11:00:00 6.1 21 Oeste 34 Oeste 0 -- -- 77
2019-11-12 10:00:00 5.6 27 Oeste 39 Oeste 0 -- -- 78
2019-11-12 09:00:00 4.8 21 Oeste 36 Oeste 0 -- -- 84
2019-11-12 08:00:00 4.3 20 Sudoeste 42 Sudoeste 0.2 -- -- 86
2019-11-12 07:00:00 3.9 26 Oeste 39 Oeste 1 -- -- 87
2019-11-12 06:00:00 4.4 19 Oeste 35 Oeste 0.2 -- -- 86
2019-11-12 05:00:00 4.9 24 Oeste 42 Oeste 0 -- -- 80
2019-11-12 04:00:00 5 29 Oeste 40 Oeste 0 -- -- 80
2019-11-12 03:00:00 5 28 Oeste 42 Oeste 0 -- -- 79
2019-11-12 02:00:00 4 23 Oeste 36 Oeste 0.4 -- -- 87
2019-11-12 01:00:00 4.1 18 Oeste 35 Oeste 0.2 -- -- 88
2019-11-12 00:00:00 4.8 19 Oeste 37 Oeste 0 -- -- 80
2019-11-11 23:00:00 4.5 18 Oeste 35 Sudoeste 0 -- -- 80
2019-11-11 22:00:00 4.4 19 Oeste 39 Sudoeste 0 -- -- 80
2019-11-11 21:00:00 4.5 26 Sudoeste 45 Sudoeste 0 -- -- 83
2019-11-11 20:00:00 4 23 Oeste 50 Sudoeste 1.6 -- -- 88
2019-11-11 19:00:00 4.4 31 Sudoeste 53 Sudoeste 0.4 -- -- 88
2019-11-11 18:00:00 4.2 21 Sudoeste 47 Oeste 1.2 -- -- 90
2019-11-11 17:00:00 4.9 33 Oeste 59 Oeste 0.2 -- -- 85
2019-11-11 16:00:00 4.7 14 Oeste 57 Sudoeste 1.6 -- -- 91
2019-11-11 15:00:00 5 24 Oeste 55 Oeste 0.6 -- -- 89
2019-11-11 14:00:00 5.8 36 Sudoeste 61 Oeste 0 -- -- 81
2019-11-11 13:00:00 5.5 13 Oeste 54 Oeste 2 -- -- 91
2019-11-11 12:00:00 6.4 39 Sudoeste 62 Sudoeste 0.8 -- -- 91
2019-11-11 11:00:00 7.1 17 Oeste 49 Sudoeste 2.6 -- -- 93
2019-11-11 10:00:00 8.2 16 Noroeste 77 Sudoeste 1.4 -- -- 94
2019-11-11 09:00:00 9.5 44 Sudoeste 73 Sudoeste 1.6 -- -- 92
2019-11-11 08:00:00 9.8 37 Sudoeste 65 Sudoeste 0.8 -- -- 92
2019-11-11 07:00:00 8.4 15 Sudoeste 42 Sudoeste 0 -- -- 93
2019-11-11 06:00:00 7.1 10 Oeste 27 Oeste 0 -- -- 92
2019-11-11 05:00:00 5.9 12 Sudoeste 33 Oeste 0 -- -- 90
2019-11-11 04:00:00 6.7 19 Oeste 34 Oeste 0 -- -- 75
2019-11-11 03:00:00 6.1 11 Noroeste 31 Oeste 0 -- -- 73
2019-11-11 02:00:00 4.9 15 Sudoeste 21 Sudoeste 0 -- -- 83
2019-11-11 01:00:00 5 13 Sudoeste 29 Oeste 0 -- -- 81
2019-11-11 00:00:00 4.6 18 Oeste 30 Sudoeste 0 -- -- 85